CPA547 RJTT-VHHH

Flight info

Callsign CPA547
Flight time N/A
Altitude 38000
Route LAXAS Y56 TOHME Y54 TURFY Y24 KOSHI A1 ELATO V522 ABBEY
Aircraft B77W/H-SDE1E2E3FGHIJ2J3J4J5M1RWXY/LB1D1

Departure

Time N/A
Airport Tokyo Haneda International Airport (RJTT)

Arrival

Time 2026-05-06 20:36
Airport Hong Kong International Airport (VHHH)
Time Latitude Longitude Altitude Speed Heading
2026-05-06 20:09 21.70670 111.05019 28058 ft 532 kts 96°
2026-05-06 20:09 21.70514 111.08997 28061 ft 531 kts 86°
2026-05-06 20:10 21.71529 111.16840 28068 ft 529 kts 79°
2026-05-06 20:10 21.72755 111.24593 28067 ft 527 kts 79°
2026-05-06 20:11 21.73984 111.32380 28073 ft 528 kts 79°
2026-05-06 20:11 21.75199 111.40102 28074 ft 527 kts 79°
2026-05-06 20:12 21.76419 111.47879 28077 ft 528 kts 79°
2026-05-06 20:12 21.77639 111.55680 28078 ft 528 kts 79°
2026-05-06 20:13 21.78847 111.63435 28078 ft 527 kts 79°
2026-05-06 20:13 21.80066 111.71275 28071 ft 527 kts 79°
2026-05-06 20:14 21.81276 111.79093 28075 ft 526 kts 79°
2026-05-06 20:14 21.82502 111.87028 28081 ft 528 kts 79°
2026-05-06 20:15 21.83670 111.94628 28082 ft 508 kts 79°
2026-05-06 20:15 21.84238 111.98338 28083 ft 497 kts 79°
2026-05-06 20:15 21.84806 112.02042 28081 ft 499 kts 79°
2026-05-06 20:16 21.85934 112.09413 28077 ft 500 kts 79°
2026-05-06 20:16 21.87058 112.16791 28077 ft 500 kts 79°
2026-05-06 20:17 21.88186 112.24206 28081 ft 499 kts 79°
2026-05-06 20:17 21.89307 112.31608 28091 ft 500 kts 79°
2026-05-06 20:18 21.90419 112.38970 28096 ft 500 kts 79°
2026-05-06 20:18 21.91527 112.46328 28012 ft 490 kts 79°
2026-05-06 20:19 21.92072 112.49957 27400 ft 486 kts 79°
2026-05-06 20:19 21.92607 112.53523 26568 ft 488 kts 79°
2026-05-06 20:19 21.93151 112.57156 25837 ft 485 kts 79°
2026-05-06 20:19 21.93684 112.60719 25247 ft 480 kts 79°
2026-05-06 20:20 21.94205 112.64215 24662 ft 475 kts 79°
2026-05-06 20:20 21.94731 112.67741 24022 ft 470 kts 80°
2026-05-06 20:20 21.95251 112.71231 23351 ft 467 kts 80°
2026-05-06 20:20 21.95756 112.74631 22577 ft 460 kts 80°
2026-05-06 20:21 21.96257 112.78008 21592 ft 453 kts 80°
2026-05-06 20:21 21.96745 112.81302 20610 ft 446 kts 80°
2026-05-06 20:21 21.97230 112.84579 19632 ft 439 kts 81°
2026-05-06 20:21 21.97819 112.87779 18682 ft 431 kts 73°
2026-05-06 20:22 21.98709 112.90801 17730 ft 423 kts 71°
2026-05-06 20:22 21.99623 112.93760 16770 ft 417 kts 71°
2026-05-06 20:22 22.00535 112.96705 15765 ft 411 kts 71°
2026-05-06 20:22 22.01426 112.99587 14794 ft 405 kts 71°
2026-05-06 20:23 22.02301 113.02419 13831 ft 399 kts 71°
2026-05-06 20:23 22.03177 113.05256 12842 ft 393 kts 71°
2026-05-06 20:23 22.04039 113.08050 12065 ft 382 kts 71°
2026-05-06 20:23 22.04856 113.10699 11618 ft 363 kts 71°
2026-05-06 20:24 22.05624 113.13191 11282 ft 344 kts 71°
2026-05-06 20:24 22.06367 113.15604 11020 ft 325 kts 71°
2026-05-06 20:24 22.07059 113.17851 10849 ft 306 kts 71°
2026-05-06 20:24 22.07720 113.20000 10548 ft 295 kts 71°
2026-05-06 20:25 22.08355 113.22066 10090 ft 292 kts 71°
2026-05-06 20:25 22.09000 113.24163 9663 ft 293 kts 71°
2026-05-06 20:25 22.09638 113.26239 9278 ft 292 kts 72°
2026-05-06 20:25 22.10274 113.28310 8958 ft 289 kts 72°
2026-05-06 20:26 22.10906 113.30371 8671 ft 292 kts 72°
2026-05-06 20:26 22.11571 113.32505 8304 ft 292 kts 70°
2026-05-06 20:26 22.12324 113.34533 7976 ft 291 kts 68°
2026-05-06 20:26 22.13106 113.36566 7641 ft 290 kts 68°
2026-05-06 20:27 22.13877 113.38568 7306 ft 290 kts 68°
2026-05-06 20:27 22.14650 113.40576 6970 ft 289 kts 68°
2026-05-06 20:27 22.15417 113.42568 6636 ft 288 kts 68°
2026-05-06 20:27 22.16188 113.44573 6300 ft 287 kts 68°
2026-05-06 20:28 22.16956 113.46571 5964 ft 286 kts 68°
2026-05-06 20:28 22.17715 113.48544 5631 ft 285 kts 69°
2026-05-06 20:28 22.18463 113.50521 5300 ft 283 kts 70°
2026-05-06 20:28 22.19178 113.52482 4931 ft 274 kts 69°
2026-05-06 20:29 22.19946 113.54322 4668 ft 265 kts 65°
2026-05-06 20:29 22.20756 113.56105 4391 ft 266 kts 66°
2026-05-06 20:29 22.21542 113.57921 4059 ft 267 kts 67°
2026-05-06 20:29 22.22293 113.59736 3741 ft 266 kts 68°
2026-05-06 20:30 22.23027 113.61570 3431 ft 265 kts 68°
2026-05-06 20:30 22.24429 113.65218 2880 ft 256 kts 70°
2026-05-06 20:30 22.25076 113.66889 2832 ft 223 kts 69°
2026-05-06 20:31 22.25641 113.68319 2779 ft 197 kts 70°
2026-05-06 20:31 22.26127 113.69666 2723 ft 186 kts 72°
2026-05-06 20:31 22.26544 113.70922 2658 ft 166 kts 73°
2026-05-06 20:31 22.26902 113.72033 2592 ft 150 kts 73°
2026-05-06 20:32 22.27234 113.73069 2599 ft 143 kts 73°
2026-05-06 20:32 22.27560 113.74079 2597 ft 141 kts 73°
2026-05-06 20:32 22.27888 113.75090 2464 ft 141 kts 73°
2026-05-06 20:32 22.28211 113.76086 2291 ft 140 kts 73°
2026-05-06 20:33 22.28529 113.77067 2119 ft 138 kts 73°
2026-05-06 20:33 22.28846 113.78042 1947 ft 137 kts 73°
2026-05-06 20:33 22.29159 113.79006 1774 ft 136 kts 73°
2026-05-06 20:33 22.29476 113.79981 1598 ft 136 kts 73°
2026-05-06 20:34 22.29789 113.80946 1422 ft 135 kts 73°
2026-05-06 20:34 22.30100 113.81904 1246 ft 136 kts 73°
2026-05-06 20:34 22.30416 113.82877 1068 ft 137 kts 73°
2026-05-06 20:34 22.30727 113.83835 891 ft 137 kts 72°
2026-05-06 20:35 22.31042 113.84805 711 ft 136 kts 72°
2026-05-06 20:35 22.31358 113.85780 531 ft 136 kts 72°
2026-05-06 20:35 22.31672 113.86739 351 ft 136 kts 71°
2026-05-06 20:35 22.31993 113.87701 179 ft 136 kts 72°
2026-05-06 20:36 22.32298 113.88669 43 ft 132 kts 72°
2026-05-06 20:36 22.32558 113.89481 41 ft 95 kts 70°
2026-05-06 20:36 22.32732 113.90031 41 ft 60 kts 68°
2026-05-06 20:36 22.32815 113.90299 41 ft 27 kts 81°
2026-05-06 20:37 22.32806 113.90497 41 ft 25 kts 102°
2026-05-06 20:37 22.32784 113.90596 41 ft 6 kts 105°
2026-05-06 20:37 22.32773 113.90659 41 ft 11 kts 93°
2026-05-06 20:37 22.32781 113.90715 41 ft 5 kts 73°
2026-05-06 20:38 22.32795 113.90765 41 ft 8 kts 75°
2026-05-06 20:38 22.32791 113.90816 41 ft 6 kts 134°
2026-05-06 20:38 22.32738 113.90823 41 ft 9 kts 211°
2026-05-06 20:38 22.32701 113.90754 41 ft 12 kts 249°
2026-05-06 20:39 22.32669 113.90655 41 ft 15 kts 253°
2026-05-06 20:39 22.32629 113.90534 41 ft 17 kts 249°
2026-05-06 20:39 22.32591 113.90428 41 ft 12 kts 234°
2026-05-06 20:39 22.32511 113.90416 41 ft 12 kts 160°
2026-05-06 20:40 22.32424 113.90449 41 ft 14 kts 161°
2026-05-06 20:40 22.32317 113.90490 41 ft 18 kts 160°
2026-05-06 20:40 22.32184 113.90540 41 ft 21 kts 161°
2026-05-06 20:40 22.32031 113.90599 41 ft 25 kts 160°
2026-05-06 20:41 22.31858 113.90661 41 ft 25 kts 162°
2026-05-06 20:41 22.31694 113.90721 41 ft 20 kts 162°
2026-05-06 20:41 22.31606 113.90789 41 ft 15 kts 98°
2026-05-06 20:41 22.31632 113.90903 41 ft 16 kts 70°
2026-05-06 20:42 22.31677 113.91038 41 ft 21 kts 71°
2026-05-06 20:42 22.31728 113.91197 41 ft 24 kts 73°
2026-05-06 20:42 22.31731 113.91296 41 ft 12 kts 131°
2026-05-06 20:42 22.31641 113.91337 41 ft 17 kts 161°
2026-05-06 20:43 22.31502 113.91385 41 ft 22 kts 161°
2026-05-06 20:43 22.31355 113.91439 41 ft 21 kts 159°
2026-05-06 20:43 22.31282 113.91466 41 ft 1 kts 163°
2026-05-06 20:43 22.31262 113.91493 41 ft 8 kts 97°
2026-05-06 20:44 22.31276 113.91557 41 ft 9 kts 71°
2026-05-06 20:44 22.31283 113.91578 41 ft 1 kts 71°
2026-05-06 20:44 22.31284 113.91580 41 ft 0 kts 71°